createdAt,value
2019-01-20T00:01:40.825Z,183.95
2019-01-20T00:04:10.267Z,199.07
2019-01-20T00:06:40.169Z,196.40
2019-01-20T00:09:11.976Z,195.82
2019-01-20T00:11:41.501Z,194.15
2019-01-20T00:14:10.929Z,190.22
2019-01-20T00:16:40.394Z,185.60
2019-01-20T00:19:09.966Z,196.15
2019-01-20T00:21:40.369Z,188.07
2019-01-20T00:24:09.871Z,198.43
2019-01-20T00:26:39.493Z,185.70
2019-01-20T00:29:08.928Z,189.43
2019-01-20T00:31:38.403Z,187.92
2019-01-20T00:34:08.184Z,203.62
2019-01-20T00:36:37.656Z,195.77
2019-01-20T00:39:09.645Z,196.57
2019-01-20T00:41:39.070Z,190.50
2019-01-20T00:44:10.657Z,194.33
2019-01-20T00:46:40.225Z,194.53
2019-01-20T00:49:09.669Z,205.40
2019-01-20T00:51:42.478Z,203.83
2019-01-20T00:54:13.926Z,216.20
2019-01-20T00:56:43.306Z,213.82
2019-01-20T00:59:12.899Z,229.20
2019-01-20T01:01:45.399Z,216.93
2019-01-20T01:04:14.851Z,226.98
2019-01-20T01:06:44.353Z,226.20
2019-01-20T01:09:13.852Z,232.60
2019-01-20T01:11:43.309Z,221.45
2019-01-20T01:14:12.766Z,210.13
2019-01-20T01:16:42.195Z,200.20
2019-01-20T01:19:11.705Z,214.55
2019-01-20T01:21:41.182Z,207.83
2019-01-20T01:24:10.643Z,223.22
2019-01-20T01:26:40.297Z,221.10
2019-01-20T01:29:09.743Z,216.68
2019-01-20T01:31:39.209Z,231.15
2019-01-20T01:34:08.676Z,223.82
2019-01-20T01:36:38.286Z,225.65
2019-01-20T01:39:09.329Z,239.12
2019-01-20T01:41:39.157Z,228.70
2019-01-20T01:44:08.983Z,227.55
2019-01-20T01:46:38.425Z,239.70
2019-01-20T01:49:07.902Z,244.07
2019-01-20T01:51:37.384Z,250.20
2019-01-20T01:54:06.854Z,250.15
2019-01-20T01:56:36.486Z,254.57
2019-01-20T01:59:06.148Z,254.00
2019-01-20T02:01:35.618Z,235.32
2019-01-20T02:04:05.082Z,253.10
2019-01-20T02:06:35.774Z,238.55
2019-01-20T02:09:08.024Z,243.33
2019-01-20T02:11:37.552Z,241.23
2019-01-20T02:14:07.287Z,240.05
2019-01-20T02:16:36.898Z,250.85
2019-01-20T02:19:06.682Z,240.45
2019-01-20T02:21:36.160Z,255.72
2019-01-20T02:24:05.744Z,250.70
2019-01-20T02:26:35.512Z,230.83
2019-01-20T02:29:06.040Z,236.43
2019-01-20T02:31:35.902Z,226.77
2019-01-20T02:34:05.392Z,222.90
2019-01-20T02:36:34.879Z,223.32
2019-01-20T02:39:05.746Z,243.55
2019-01-20T02:41:35.162Z,207.25
2019-01-20T02:44:04.887Z,209.62
2019-01-20T02:46:34.345Z,208.30
2019-01-20T02:49:03.783Z,199.90
2019-01-20T02:51:33.337Z,192.55
2019-01-20T02:54:05.702Z,205.30
2019-01-20T02:56:35.169Z,211.87
2019-01-20T02:59:04.622Z,192.50
2019-01-20T03:01:34.210Z,199.77
2019-01-20T03:04:03.667Z,224.20
2019-01-20T03:06:33.336Z,229.82
2019-01-20T03:09:04.612Z,228.22
2019-01-20T03:11:34.148Z,209.10
2019-01-20T03:14:03.703Z,208.95
2019-01-20T03:16:33.505Z,211.28
2019-01-20T03:19:04.317Z,204.65
2019-01-20T03:21:33.923Z,202.82
2019-01-20T03:24:03.377Z,205.25
2019-01-20T03:26:32.853Z,229.25
2019-01-20T03:29:02.326Z,202.53
2019-01-20T03:31:31.869Z,205.92
2019-01-20T03:34:01.290Z,252.65
2019-01-20T03:36:30.784Z,201.58
2019-01-20T03:39:00.273Z,263.85
2019-01-20T03:41:29.780Z,203.13
2019-01-20T03:43:59.237Z,211.50
2019-01-20T03:46:28.969Z,202.22
2019-01-20T03:48:58.435Z,209.32
2019-01-20T03:51:27.914Z,356.60
2019-01-20T03:53:57.676Z,239.42
2019-01-20T03:56:27.163Z,247.55
2019-01-20T03:58:57.245Z,298.05
2019-01-20T04:01:26.683Z,297.20
2019-01-20T04:03:56.405Z,317.05
2019-01-20T04:06:25.883Z,324.35
2019-01-20T04:08:55.345Z,394.62
2019-01-20T04:11:25.129Z,388.18
2019-01-20T04:13:54.559Z,289.82
2019-01-20T04:16:25.002Z,263.37
2019-01-20T04:18:54.500Z,216.57
2019-01-20T04:21:24.010Z,207.15
2019-01-20T04:23:55.968Z,221.80
2019-01-20T04:26:25.501Z,216.00
2019-01-20T04:28:54.957Z,224.70
2019-01-20T04:31:24.439Z,253.22
2019-01-20T04:33:53.888Z,239.05
2019-01-20T04:36:23.390Z,262.50
2019-01-20T04:38:52.837Z,286.60
2019-01-20T04:41:22.535Z,314.27
2019-01-20T04:43:51.988Z,269.27
2019-01-20T04:46:21.516Z,276.07
2019-01-20T04:48:51.029Z,286.82
2019-01-20T04:51:20.612Z,289.00
2019-01-20T04:53:51.616Z,283.82
2019-01-20T04:56:21.123Z,282.32
2019-01-20T04:58:51.836Z,287.00
2019-01-20T05:01:21.295Z,290.95
2019-01-20T05:03:50.801Z,291.85
2019-01-20T05:06:20.586Z,297.52
2019-01-20T05:08:50.061Z,299.35
2019-01-20T05:11:19.533Z,281.82
2019-01-20T05:13:49.012Z,276.95
2019-01-20T05:16:18.655Z,290.77
2019-01-20T05:18:48.152Z,277.35
2019-01-20T05:21:17.615Z,276.17
2019-01-20T05:23:47.392Z,299.62
2019-01-20T05:26:16.838Z,297.90
2019-01-20T05:28:46.550Z,303.73
2019-01-20T05:31:16.040Z,288.53
2019-01-20T05:33:45.460Z,293.88
2019-01-20T05:36:15.412Z,286.23
2019-01-20T05:38:44.910Z,280.97
2019-01-20T05:41:14.533Z,289.87
2019-01-20T05:43:44.005Z,266.73
2019-01-20T05:46:13.454Z,270.90
2019-01-20T05:48:43.155Z,256.65
2019-01-20T05:51:12.615Z,253.47
2019-01-20T05:53:42.144Z,259.70
2019-01-20T05:56:11.913Z,262.08
2019-01-20T05:58:41.422Z,253.15
2019-01-20T06:01:11.142Z,244.18
2019-01-20T06:03:40.667Z,262.00
2019-01-20T06:06:10.166Z,281.45
2019-01-20T06:08:40.244Z,262.72
2019-01-20T06:11:09.662Z,279.35
2019-01-20T06:13:39.320Z,262.67
2019-01-20T06:16:08.827Z,281.43
2019-01-20T06:18:38.284Z,269.25
2019-01-20T06:21:07.973Z,278.10
2019-01-20T06:23:37.497Z,270.48
2019-01-20T06:26:06.925Z,263.85
2019-01-20T06:28:36.781Z,275.03
2019-01-20T06:31:06.213Z,269.77
2019-01-20T06:33:36.098Z,255.40
2019-01-20T06:36:05.775Z,258.53
2019-01-20T06:38:35.391Z,276.20
2019-01-20T06:41:04.852Z,260.55
2019-01-20T06:43:34.477Z,270.97
2019-01-20T06:46:04.683Z,246.53
2019-01-20T06:48:34.271Z,258.63
2019-01-20T06:51:03.708Z,259.18
2019-01-20T06:53:33.365Z,258.63
2019-01-20T06:56:03.707Z,252.97
2019-01-20T06:58:33.216Z,256.65
2019-01-20T07:01:03.309Z,240.20
2019-01-20T07:03:32.767Z,243.02
2019-01-20T07:06:02.231Z,239.42
2019-01-20T07:08:32.361Z,238.75
2019-01-20T07:11:01.813Z,229.00
2019-01-20T07:13:31.287Z,225.13
2019-01-20T07:16:00.764Z,218.30
2019-01-20T07:18:30.253Z,231.07
2019-01-20T07:21:00.170Z,225.25
2019-01-20T07:23:29.625Z,244.90
2019-01-20T07:25:59.064Z,280.00
2019-01-20T07:28:28.808Z,276.12
2019-01-20T07:30:58.477Z,270.27
2019-01-20T07:33:28.086Z,229.95
2019-01-20T07:35:57.582Z,316.15
2019-01-20T07:38:27.115Z,212.27
2019-01-20T07:40:56.591Z,215.72
2019-01-20T07:43:26.122Z,214.03
2019-01-20T07:45:55.545Z,205.15
2019-01-20T07:48:25.153Z,203.15
2019-01-20T07:50:54.637Z,200.75
2019-01-20T07:53:24.610Z,195.00
2019-01-20T07:55:54.040Z,200.93
2019-01-20T07:58:23.797Z,202.75
2019-01-20T08:00:53.467Z,193.55
2019-01-20T08:03:22.874Z,188.25
2019-01-20T08:05:52.323Z,185.20
2019-01-20T08:08:21.909Z,198.20
2019-01-20T08:10:51.423Z,219.15
2019-01-20T08:13:24.351Z,192.37
2019-01-20T08:15:52.860Z,182.33
2019-01-20T08:18:23.759Z,174.72
2019-01-20T08:20:53.332Z,186.47
2019-01-20T08:23:22.851Z,184.03
2019-01-20T08:25:54.586Z,174.80
2019-01-20T08:28:24.094Z,206.15
2019-01-20T08:30:55.266Z,173.13
2019-01-20T08:33:25.824Z,179.55
2019-01-20T08:35:58.508Z,172.27
2019-01-20T08:38:27.939Z,174.38
2019-01-20T08:40:57.612Z,166.73
2019-01-20T08:43:31.939Z,164.83
2019-01-20T08:47:04.963Z,171.75
2019-01-20T08:49:34.536Z,160.65
2019-01-20T08:52:03.999Z,164.50
2019-01-20T08:54:34.480Z,156.12
2019-01-20T08:57:04.005Z,154.83
2019-01-20T08:59:33.484Z,167.10
2019-01-20T09:02:02.940Z,163.93
2019-01-20T09:04:32.963Z,220.35
2019-01-20T09:07:02.457Z,152.25
2019-01-20T09:09:32.073Z,146.57
2019-01-20T09:12:01.680Z,136.03
2019-01-20T09:14:31.113Z,145.10
2019-01-20T09:17:00.666Z,134.43
2019-01-20T09:19:30.078Z,244.47
2019-01-20T09:21:59.500Z,424.40
2019-01-20T09:24:29.013Z,234.52
2019-01-20T09:26:58.765Z,123.58
2019-01-20T09:29:28.237Z,124.87
2019-01-20T09:31:57.686Z,129.03
2019-01-20T09:34:27.271Z,134.70
2019-01-20T09:36:56.708Z,130.22
2019-01-20T09:39:26.175Z,137.88
2019-01-20T09:41:56.081Z,140.67
2019-01-20T09:44:25.588Z,127.62
2019-01-20T09:46:57.623Z,127.85
2019-01-20T09:49:29.146Z,134.85
2019-01-20T09:51:58.764Z,135.65
2019-01-20T09:54:28.212Z,139.68
2019-01-20T09:56:57.730Z,135.13
2019-01-20T09:59:27.232Z,135.30
2019-01-20T10:01:56.768Z,143.63
2019-01-20T10:04:26.319Z,144.50
2019-01-20T10:06:55.950Z,143.62
2019-01-20T10:09:26.365Z,152.22
2019-01-20T10:11:56.601Z,152.60
2019-01-20T10:14:26.327Z,158.55
2019-01-20T10:16:55.949Z,155.03
2019-01-20T10:19:25.473Z,155.57
2019-01-20T10:21:54.928Z,154.05
2019-01-20T10:24:24.451Z,150.95
2019-01-20T10:26:53.983Z,149.02
2019-01-20T10:29:23.916Z,145.10
2019-01-20T10:31:53.506Z,148.15
2019-01-20T10:34:23.214Z,150.97
2019-01-20T10:36:53.536Z,150.12
2019-01-20T10:39:23.056Z,149.70
2019-01-20T10:41:53.546Z,148.65
2019-01-20T10:44:23.180Z,147.98
2019-01-20T10:46:52.723Z,149.70
2019-01-20T10:49:22.125Z,141.55
2019-01-20T10:51:51.687Z,150.15
2019-01-20T10:54:21.093Z,135.22
2019-01-20T10:56:50.609Z,140.80
2019-01-20T10:59:20.280Z,141.37
2019-01-20T11:01:49.954Z,145.25
2019-01-20T11:04:19.872Z,146.15
2019-01-20T11:06:49.391Z,143.28
2019-01-20T11:09:19.198Z,145.40
2019-01-20T11:11:48.678Z,139.37
2019-01-20T11:14:18.111Z,140.52
2019-01-20T11:16:47.732Z,140.12
2019-01-20T11:19:17.418Z,148.75
2019-01-20T11:21:47.228Z,145.38
2019-01-20T11:24:18.716Z,144.93
2019-01-20T11:26:48.118Z,127.70
2019-01-20T11:29:17.793Z,135.90
2019-01-20T11:31:47.377Z,130.95
2019-01-20T11:34:19.211Z,123.17
2019-01-20T11:36:51.239Z,122.57
2019-01-20T11:39:21.729Z,139.37
2019-01-20T11:41:52.286Z,125.20
2019-01-20T11:44:23.939Z,130.37
2019-01-20T11:46:55.137Z,130.05
2019-01-20T11:49:24.669Z,130.05
2019-01-20T11:51:54.672Z,122.47
2019-01-20T11:54:28.308Z,117.60
2019-01-20T11:56:59.509Z,121.60
2019-01-20T11:59:30.212Z,118.20
2019-01-20T12:01:59.958Z,119.28
2019-01-20T12:04:29.485Z,124.27
2019-01-20T12:06:58.973Z,122.47
2019-01-20T12:09:30.504Z,127.55
2019-01-20T12:12:05.880Z,128.85
2019-01-20T12:14:40.606Z,125.27
2019-01-20T12:17:12.929Z,133.97
2019-01-20T12:19:46.283Z,121.57
2019-01-20T12:22:27.302Z,125.43
2019-01-20T12:24:56.887Z,129.68
2019-01-20T12:27:26.466Z,119.50
2019-01-20T12:29:55.987Z,122.40
2019-01-20T12:32:30.632Z,119.62
2019-01-20T12:35:00.314Z,108.12
2019-01-20T12:37:40.062Z,108.73
2019-01-20T12:40:19.218Z,98.67
2019-01-20T12:42:57.936Z,91.50
2019-01-20T12:45:34.103Z,95.87
2019-01-20T12:48:03.722Z,92.10
2019-01-20T12:50:33.708Z,98.90
2019-01-20T12:53:04.466Z,96.72
2019-01-20T12:55:34.111Z,272.10
2019-01-20T12:58:03.812Z,139.45
2019-01-20T13:00:33.252Z,120.53
2019-01-20T13:03:02.718Z,128.80
2019-01-20T13:05:35.444Z,128.90
2019-01-20T13:08:05.627Z,121.40
2019-01-20T13:10:36.812Z,118.97
2019-01-20T13:13:06.368Z,105.50
2019-01-20T13:15:36.140Z,88.82
2019-01-20T13:18:05.744Z,87.55
2019-01-20T13:20:35.186Z,73.33
2019-01-20T13:23:04.974Z,72.47
2019-01-20T13:25:37.457Z,117.20
2019-01-20T13:28:07.024Z,71.47
2019-01-20T13:30:36.538Z,77.10
2019-01-20T13:33:06.014Z,69.37
2019-01-20T13:35:35.558Z,74.40
2019-01-20T13:38:13.491Z,73.05
2019-01-20T13:40:52.949Z,74.62
2019-01-20T13:43:22.675Z,72.42
2019-01-20T13:45:55.158Z,69.20
2019-01-20T13:48:24.784Z,73.28
2019-01-20T13:50:54.647Z,75.10
2019-01-20T13:53:24.924Z,70.22
2019-01-20T13:56:01.036Z,70.22
2019-01-20T13:58:28.504Z,76.42
2019-01-20T14:00:58.144Z,78.17
2019-01-20T14:03:30.622Z,120.20
2019-01-20T14:06:00.226Z,138.03
2019-01-20T14:08:29.897Z,107.63
2019-01-20T14:10:59.450Z,83.70
2019-01-20T14:13:29.141Z,82.57
2019-01-20T14:15:58.661Z,69.50
2019-01-20T14:18:28.139Z,81.82
2019-01-20T14:20:57.681Z,78.47
2019-01-20T14:23:27.241Z,77.22
2019-01-20T14:25:56.660Z,74.85
2019-01-20T14:28:26.084Z,73.85
2019-01-20T14:30:55.672Z,76.92
2019-01-20T14:33:25.233Z,68.90
2019-01-20T14:35:54.665Z,76.02
2019-01-20T14:38:24.822Z,75.95
2019-01-20T14:40:55.156Z,88.47
2019-01-20T14:43:24.560Z,81.55
2019-01-20T14:46:33.242Z,83.17
2019-01-20T14:49:03.822Z,82.35
2019-01-20T14:51:33.560Z,169.25
2019-01-20T14:54:03.013Z,121.80
2019-01-20T14:56:32.441Z,85.97
2019-01-20T14:59:02.093Z,79.92
2019-01-20T15:01:31.582Z,168.32
2019-01-20T15:04:01.272Z,104.45
2019-01-20T15:06:30.799Z,109.15
2019-01-20T15:09:00.269Z,175.75
2019-01-20T15:11:29.819Z,76.28
2019-01-20T15:14:00.610Z,73.50
2019-01-20T15:16:30.095Z,80.53
2019-01-20T15:18:59.546Z,75.70
2019-01-20T15:21:29.071Z,73.90
2019-01-20T15:23:58.467Z,75.75
2019-01-20T15:26:28.002Z,79.90
2019-01-20T15:28:57.794Z,78.07
2019-01-20T15:31:27.218Z,82.57
2019-01-20T15:33:56.874Z,96.72
2019-01-20T15:36:26.345Z,86.75
2019-01-20T15:38:55.936Z,83.10
2019-01-20T15:41:25.370Z,83.90
2019-01-20T15:43:54.903Z,79.37
2019-01-20T15:46:24.349Z,88.37
2019-01-20T15:48:54.219Z,80.20
2019-01-20T15:51:23.679Z,81.87
2019-01-20T15:53:53.216Z,76.87
2019-01-20T15:56:24.130Z,85.75
2019-01-20T15:58:53.653Z,83.40
2019-01-20T16:01:23.261Z,78.92
2019-01-20T16:03:53.159Z,74.47
2019-01-20T16:06:22.839Z,74.72
2019-01-20T16:08:52.414Z,86.45
2019-01-20T16:11:21.874Z,70.00
2019-01-20T16:13:51.387Z,67.42
2019-01-20T16:16:20.846Z,72.27
2019-01-20T16:18:50.305Z,73.52
2019-01-20T16:21:20.213Z,86.67
2019-01-20T16:23:49.728Z,62.75
2019-01-20T16:26:19.452Z,62.98
2019-01-20T16:28:48.928Z,56.55
2019-01-20T16:31:18.435Z,62.40
2019-01-20T16:33:47.994Z,64.97
2019-01-20T16:36:17.622Z,67.78
2019-01-20T16:38:47.073Z,67.07
2019-01-20T16:41:16.681Z,60.88
2019-01-20T16:43:46.111Z,71.72
2019-01-20T16:46:15.575Z,63.78
2019-01-20T16:48:45.006Z,67.35
2019-01-20T16:51:14.532Z,87.62
2019-01-20T16:53:43.933Z,104.10
2019-01-20T16:56:13.400Z,75.05
2019-01-20T16:58:43.174Z,70.70
2019-01-20T17:01:12.701Z,69.10
2019-01-20T17:03:42.321Z,76.82
2019-01-20T17:06:11.983Z,66.93
2019-01-20T17:08:48.963Z,69.97
2019-01-20T17:11:24.633Z,73.52
2019-01-20T17:13:54.160Z,70.45
2019-01-20T17:16:23.625Z,77.45
2019-01-20T17:18:53.196Z,74.72
2019-01-20T17:21:22.803Z,72.62
2019-01-20T17:23:52.298Z,73.28
2019-01-20T17:26:21.804Z,74.60
2019-01-20T17:28:51.528Z,71.77
2019-01-20T17:31:21.022Z,81.25
2019-01-20T17:33:50.496Z,78.10
2019-01-20T17:36:20.165Z,75.90
2019-01-20T17:38:49.614Z,76.65
2019-01-20T17:41:19.085Z,79.42
2019-01-20T17:43:48.691Z,74.90
2019-01-20T17:46:18.116Z,79.22
2019-01-20T17:48:47.594Z,86.33
2019-01-20T17:51:17.156Z,78.28
2019-01-20T17:53:46.643Z,82.97
2019-01-20T17:56:16.102Z,81.65
2019-01-20T17:58:45.886Z,79.70
2019-01-20T18:01:15.306Z,78.37
2019-01-20T18:03:44.768Z,78.63
2019-01-20T18:06:14.400Z,86.17
2019-01-20T18:08:43.914Z,81.67
2019-01-20T18:11:13.418Z,82.25
2019-01-20T18:13:42.833Z,80.03
2019-01-20T18:16:12.396Z,82.70
2019-01-20T18:18:41.848Z,82.70
2019-01-20T18:21:11.375Z,89.92
2019-01-20T18:23:41.201Z,91.82
2019-01-20T18:26:10.668Z,93.27
2019-01-20T18:28:40.105Z,93.05
2019-01-20T18:31:09.598Z,93.55
2019-01-20T18:33:39.108Z,94.17
2019-01-20T18:36:08.556Z,92.75
2019-01-20T18:38:38.034Z,85.28
2019-01-20T18:41:07.787Z,92.12
2019-01-20T18:43:37.305Z,92.70
2019-01-20T18:46:07.980Z,89.07
2019-01-20T18:48:37.450Z,90.83
2019-01-20T18:51:06.897Z,88.90
2019-01-20T18:53:36.568Z,92.75
2019-01-20T18:56:06.066Z,88.67
2019-01-20T18:58:35.486Z,89.42
2019-01-20T19:01:05.635Z,88.97
2019-01-20T19:03:35.108Z,89.90
2019-01-20T19:06:04.792Z,99.70
2019-01-20T19:08:34.252Z,108.25
2019-01-20T19:11:03.727Z,95.03
2019-01-20T19:13:33.189Z,95.47
2019-01-20T19:16:08.708Z,95.40
2019-01-20T19:18:33.830Z,96.92
2019-01-20T19:21:03.253Z,104.10
2019-01-20T19:23:32.874Z,107.97
2019-01-20T19:26:02.344Z,104.92
2019-01-20T19:28:31.811Z,113.28
2019-01-20T19:31:01.311Z,110.30
2019-01-20T19:33:30.761Z,113.90
2019-01-20T19:36:00.242Z,118.60
2019-01-20T19:38:29.858Z,114.90
2019-01-20T19:40:59.333Z,115.73
2019-01-20T19:43:28.814Z,127.85
2019-01-20T19:45:58.333Z,121.42
2019-01-20T19:48:27.757Z,133.47
2019-01-20T19:50:57.224Z,123.47
2019-01-20T19:53:26.705Z,114.15
2019-01-20T19:55:56.487Z,114.52
2019-01-20T19:58:25.897Z,112.03
2019-01-20T20:00:55.433Z,117.90
2019-01-20T20:03:25.405Z,116.62
2019-01-20T20:05:54.837Z,115.25
2019-01-20T20:08:24.372Z,121.10
2019-01-20T20:10:54.068Z,108.95
2019-01-20T20:13:23.770Z,124.07
2019-01-20T20:15:53.282Z,122.40
2019-01-20T20:18:24.649Z,121.05
2019-01-20T20:20:55.252Z,129.95
2019-01-20T20:23:24.725Z,128.25
2019-01-20T20:25:54.294Z,127.20
2019-01-20T20:28:24.071Z,127.40
2019-01-20T20:30:53.825Z,128.00
2019-01-20T20:33:23.330Z,129.07
2019-01-20T20:35:54.607Z,122.37
2019-01-20T20:38:25.009Z,137.22
2019-01-20T20:40:54.481Z,129.68
2019-01-20T20:43:24.203Z,128.75
2019-01-20T20:45:54.165Z,131.40
2019-01-20T20:48:23.705Z,129.00
2019-01-20T20:50:53.187Z,120.65
2019-01-20T20:53:22.836Z,123.33
2019-01-20T20:55:52.311Z,116.12
2019-01-20T20:58:21.820Z,118.17
2019-01-20T21:00:54.342Z,122.30
2019-01-20T21:03:29.599Z,113.35
2019-01-20T21:05:59.337Z,117.42
2019-01-20T21:08:30.050Z,119.35
2019-01-20T21:10:59.537Z,143.95
2019-01-20T21:13:28.999Z,113.40
2019-01-20T21:15:58.464Z,114.55
2019-01-20T21:18:27.919Z,116.20
2019-01-20T21:20:57.422Z,122.55
2019-01-20T21:23:26.852Z,122.28
2019-01-20T21:25:56.363Z,123.70
2019-01-20T21:28:25.815Z,116.57
2019-01-20T21:30:55.484Z,117.50
2019-01-20T21:33:24.925Z,121.67
2019-01-20T21:35:54.408Z,117.10
2019-01-20T21:38:23.882Z,117.57
2019-01-20T21:40:53.363Z,118.93
2019-01-20T21:43:22.866Z,117.05
2019-01-20T21:45:52.388Z,122.05
2019-01-20T21:48:21.849Z,113.32
2019-01-20T21:50:51.298Z,214.15
2019-01-20T21:53:21.686Z,121.90
2019-01-20T21:55:51.171Z,117.25
2019-01-20T21:58:20.600Z,115.90
2019-01-20T22:00:50.049Z,122.70
2019-01-20T22:03:19.474Z,124.33
2019-01-20T22:05:49.098Z,110.78
2019-01-20T22:08:18.567Z,109.45
2019-01-20T22:10:48.035Z,120.55
2019-01-20T22:13:17.530Z,111.72
2019-01-20T22:15:46.982Z,112.08
2019-01-20T22:18:16.402Z,105.70
2019-01-20T22:20:45.938Z,114.55
2019-01-20T22:23:15.376Z,136.03
2019-01-20T22:25:44.908Z,104.47
2019-01-20T22:28:14.377Z,108.37
2019-01-20T22:30:43.819Z,100.15
2019-01-20T22:33:13.378Z,101.82
2019-01-20T22:35:42.967Z,104.12
2019-01-20T22:38:12.453Z,100.65
2019-01-20T22:40:41.914Z,104.07
2019-01-20T22:43:11.367Z,101.38
2019-01-20T22:45:40.859Z,112.52
2019-01-20T22:48:10.304Z,99.92
2019-01-20T22:50:39.801Z,99.62
2019-01-20T22:53:09.286Z,100.83
2019-01-20T22:55:38.762Z,105.30
2019-01-20T22:58:08.225Z,110.40
2019-01-20T23:00:59.205Z,103.27
2019-01-20T23:03:29.300Z,97.20
2019-01-20T23:05:59.069Z,104.63
2019-01-20T23:08:28.558Z,102.90
2019-01-20T23:10:58.005Z,109.73
2019-01-20T23:13:27.455Z,104.55
2019-01-20T23:15:56.957Z,101.97
2019-01-20T23:18:26.424Z,101.85
2019-01-20T23:20:55.890Z,109.85
2019-01-20T23:23:25.329Z,112.10
2019-01-20T23:25:54.789Z,114.67
2019-01-20T23:28:24.258Z,108.52
2019-01-20T23:30:54.033Z,111.45
2019-01-20T23:33:23.487Z,113.15
2019-01-20T23:35:52.981Z,111.42
2019-01-20T23:38:22.393Z,115.00
2019-01-20T23:40:51.836Z,112.90
2019-01-20T23:43:21.301Z,116.73
2019-01-20T23:45:50.726Z,115.67
2019-01-20T23:48:20.190Z,115.37
2019-01-20T23:50:49.613Z,120.62
2019-01-20T23:53:19.231Z,127.78
2019-01-20T23:55:48.630Z,123.92
2019-01-20T23:58:18.179Z,118.00
